sensor_id;sensor_type;location;lat;lon;timestamp;temperature;humidity
9564;DHT22;4820;50.870;4.702;2023-03-19T00:01:59;11.80;99.90
9564;DHT22;4820;50.870;4.702;2023-03-19T00:04:26;11.80;99.90
9564;DHT22;4820;50.870;4.702;2023-03-19T00:06:52;11.80;99.90
9564;DHT22;4820;50.870;4.702;2023-03-19T00:09:19;11.70;99.90
9564;DHT22;4820;50.870;4.702;2023-03-19T00:11:47;11.70;99.90
9564;DHT22;4820;50.870;4.702;2023-03-19T00:14:13;11.70;99.90
9564;DHT22;4820;50.870;4.702;2023-03-19T00:16:39;11.70;99.90
9564;DHT22;4820;50.870;4.702;2023-03-19T00:19:05;11.70;99.90
9564;DHT22;4820;50.870;4.702;2023-03-19T00:21:31;11.70;99.90
9564;DHT22;4820;50.870;4.702;2023-03-19T00:23:57;11.70;99.90
9564;DHT22;4820;50.870;4.702;2023-03-19T00:26:31;11.70;99.90
9564;DHT22;4820;50.870;4.702;2023-03-19T00:28:57;11.80;99.90
9564;DHT22;4820;50.870;4.702;2023-03-19T00:31:23;11.80;99.90
9564;DHT22;4820;50.870;4.702;2023-03-19T00:33:50;11.80;99.90
9564;DHT22;4820;50.870;4.702;2023-03-19T00:36:17;11.80;99.90
9564;DHT22;4820;50.870;4.702;2023-03-19T00:38:44;11.80;99.90
9564;DHT22;4820;50.870;4.702;2023-03-19T00:41:11;11.80;99.90
9564;DHT22;4820;50.870;4.702;2023-03-19T00:43:37;11.70;99.90
9564;DHT22;4820;50.870;4.702;2023-03-19T00:46:03;11.70;99.90
9564;DHT22;4820;50.870;4.702;2023-03-19T00:48:29;11.70;99.90
9564;DHT22;4820;50.870;4.702;2023-03-19T00:51:07;11.60;99.90
9564;DHT22;4820;50.870;4.702;2023-03-19T00:53:38;11.70;99.90
9564;DHT22;4820;50.870;4.702;2023-03-19T00:56:05;11.70;99.90
9564;DHT22;4820;50.870;4.702;2023-03-19T00:58:33;11.70;99.90
9564;DHT22;4820;50.870;4.702;2023-03-19T01:00:59;11.60;99.90
9564;DHT22;4820;50.870;4.702;2023-03-19T01:03:26;11.70;99.90
9564;DHT22;4820;50.870;4.702;2023-03-19T01:05:52;11.60;99.90
9564;DHT22;4820;50.870;4.702;2023-03-19T01:08:18;11.70;99.90
9564;DHT22;4820;50.870;4.702;2023-03-19T01:10:44;11.70;99.90
9564;DHT22;4820;50.870;4.702;2023-03-19T01:13:11;11.70;99.90
9564;DHT22;4820;50.870;4.702;2023-03-19T01:15:42;11.70;99.90
9564;DHT22;4820;50.870;4.702;2023-03-19T01:18:10;11.70;99.90
9564;DHT22;4820;50.870;4.702;2023-03-19T01:20:38;11.70;99.90
9564;DHT22;4820;50.870;4.702;2023-03-19T01:23:04;11.70;99.90
9564;DHT22;4820;50.870;4.702;2023-03-19T01:25:31;11.70;99.90
9564;DHT22;4820;50.870;4.702;2023-03-19T01:28:00;11.60;99.90
9564;DHT22;4820;50.870;4.702;2023-03-19T01:30:26;11.60;99.90
9564;DHT22;4820;50.870;4.702;2023-03-19T01:32:54;11.60;99.90
9564;DHT22;4820;50.870;4.702;2023-03-19T01:35:20;11.60;99.90
9564;DHT22;4820;50.870;4.702;2023-03-19T01:37:46;11.60;99.90
9564;DHT22;4820;50.870;4.702;2023-03-19T01:40:13;11.60;99.90
9564;DHT22;4820;50.870;4.702;2023-03-19T01:42:56;11.60;99.90
9564;DHT22;4820;50.870;4.702;2023-03-19T01:45:32;11.60;99.90
9564;DHT22;4820;50.870;4.702;2023-03-19T01:47:59;11.60;99.90
9564;DHT22;4820;50.870;4.702;2023-03-19T01:50:39;11.70;99.90
9564;DHT22;4820;50.870;4.702;2023-03-19T01:53:08;11.60;99.90
9564;DHT22;4820;50.870;4.702;2023-03-19T01:55:34;11.70;99.90
9564;DHT22;4820;50.870;4.702;2023-03-19T01:58:00;11.60;99.90
9564;DHT22;4820;50.870;4.702;2023-03-19T02:00:30;11.70;99.90
9564;DHT22;4820;50.870;4.702;2023-03-19T02:02:58;11.70;99.90
9564;DHT22;4820;50.870;4.702;2023-03-19T02:05:26;11.70;99.90
9564;DHT22;4820;50.870;4.702;2023-03-19T02:07:55;11.70;99.90
9564;DHT22;4820;50.870;4.702;2023-03-19T02:10:22;11.70;99.90
9564;DHT22;4820;50.870;4.702;2023-03-19T02:12:49;11.70;99.90
9564;DHT22;4820;50.870;4.702;2023-03-19T02:15:15;11.70;99.90
9564;DHT22;4820;50.870;4.702;2023-03-19T02:17:41;11.70;99.90
9564;DHT22;4820;50.870;4.702;2023-03-19T02:28:15;11.70;99.90
9564;DHT22;4820;50.870;4.702;2023-03-19T02:30:43;11.70;99.90
9564;DHT22;4820;50.870;4.702;2023-03-19T02:33:15;11.70;99.90
9564;DHT22;4820;50.870;4.702;2023-03-19T02:35:44;11.70;99.90
9564;DHT22;4820;50.870;4.702;2023-03-19T02:38:13;11.70;99.90
9564;DHT22;4820;50.870;4.702;2023-03-19T02:40:44;11.70;99.90
9564;DHT22;4820;50.870;4.702;2023-03-19T02:43:12;11.70;99.90
9564;DHT22;4820;50.870;4.702;2023-03-19T02:45:38;11.70;99.90
9564;DHT22;4820;50.870;4.702;2023-03-19T02:48:04;11.70;99.90
9564;DHT22;4820;50.870;4.702;2023-03-19T02:50:30;11.70;99.90
9564;DHT22;4820;50.870;4.702;2023-03-19T02:52:56;11.70;99.90
9564;DHT22;4820;50.870;4.702;2023-03-19T02:55:21;11.70;99.90
9564;DHT22;4820;50.870;4.702;2023-03-19T02:57:47;11.70;99.90
9564;DHT22;4820;50.870;4.702;2023-03-19T03:00:13;11.70;99.90
9564;DHT22;4820;50.870;4.702;2023-03-19T03:02:40;11.60;99.90
9564;DHT22;4820;50.870;4.702;2023-03-19T03:05:06;11.70;99.90
9564;DHT22;4820;50.870;4.702;2023-03-19T03:07:33;11.70;99.90
9564;DHT22;4820;50.870;4.702;2023-03-19T03:10:00;11.70;99.90
9564;DHT22;4820;50.870;4.702;2023-03-19T03:12:26;11.70;99.90
9564;DHT22;4820;50.870;4.702;2023-03-19T03:14:52;11.70;99.90
9564;DHT22;4820;50.870;4.702;2023-03-19T03:17:17;11.70;99.90
9564;DHT22;4820;50.870;4.702;2023-03-19T03:19:44;11.70;99.90
9564;DHT22;4820;50.870;4.702;2023-03-19T03:22:10;11.80;99.90
9564;DHT22;4820;50.870;4.702;2023-03-19T03:24:36;11.70;99.90
9564;DHT22;4820;50.870;4.702;2023-03-19T03:27:03;11.70;99.90
9564;DHT22;4820;50.870;4.702;2023-03-19T03:29:30;11.70;99.90
9564;DHT22;4820;50.870;4.702;2023-03-19T03:31:56;11.70;99.90
9564;DHT22;4820;50.870;4.702;2023-03-19T03:34:22;11.70;99.90
9564;DHT22;4820;50.870;4.702;2023-03-19T03:36:48;11.70;99.90
9564;DHT22;4820;50.870;4.702;2023-03-19T03:39:14;11.70;99.90
9564;DHT22;4820;50.870;4.702;2023-03-19T03:41:40;11.70;99.90
9564;DHT22;4820;50.870;4.702;2023-03-19T03:44:06;11.70;99.90
9564;DHT22;4820;50.870;4.702;2023-03-19T03:46:33;11.80;99.90
9564;DHT22;4820;50.870;4.702;2023-03-19T03:48:58;11.80;99.90
9564;DHT22;4820;50.870;4.702;2023-03-19T03:51:25;11.80;99.90
9564;DHT22;4820;50.870;4.702;2023-03-19T03:53:50;11.80;99.90
9564;DHT22;4820;50.870;4.702;2023-03-19T03:56:16;11.80;99.90
9564;DHT22;4820;50.870;4.702;2023-03-19T03:58:42;11.80;99.90
9564;DHT22;4820;50.870;4.702;2023-03-19T04:01:13;11.80;99.90
9564;DHT22;4820;50.870;4.702;2023-03-19T04:03:39;11.80;99.90
9564;DHT22;4820;50.870;4.702;2023-03-19T04:06:06;11.80;99.90
9564;DHT22;4820;50.870;4.702;2023-03-19T04:08:32;11.80;99.90
9564;DHT22;4820;50.870;4.702;2023-03-19T04:10:58;11.80;99.90
9564;DHT22;4820;50.870;4.702;2023-03-19T04:13:23;11.80;99.90
9564;DHT22;4820;50.870;4.702;2023-03-19T04:15:49;11.80;99.90
9564;DHT22;4820;50.870;4.702;2023-03-19T04:18:15;11.80;99.90
9564;DHT22;4820;50.870;4.702;2023-03-19T04:20:42;11.80;99.90
9564;DHT22;4820;50.870;4.702;2023-03-19T04:23:08;11.80;99.90
9564;DHT22;4820;50.870;4.702;2023-03-19T04:25:33;11.80;99.90
9564;DHT22;4820;50.870;4.702;2023-03-19T04:27:59;11.70;99.90
9564;DHT22;4820;50.870;4.702;2023-03-19T04:30:25;11.70;99.90
9564;DHT22;4820;50.870;4.702;2023-03-19T04:32:52;11.80;99.90
9564;DHT22;4820;50.870;4.702;2023-03-19T04:35:17;11.80;99.90
9564;DHT22;4820;50.870;4.702;2023-03-19T04:37:43;11.80;99.90
9564;DHT22;4820;50.870;4.702;2023-03-19T04:40:13;11.80;99.90
9564;DHT22;4820;50.870;4.702;2023-03-19T04:42:40;11.80;99.90
9564;DHT22;4820;50.870;4.702;2023-03-19T04:45:06;11.80;99.90
9564;DHT22;4820;50.870;4.702;2023-03-19T04:47:32;11.70;99.90
9564;DHT22;4820;50.870;4.702;2023-03-19T04:49:58;11.70;99.90
9564;DHT22;4820;50.870;4.702;2023-03-19T04:52:23;11.60;99.90
9564;DHT22;4820;50.870;4.702;2023-03-19T04:54:49;11.50;99.90
9564;DHT22;4820;50.870;4.702;2023-03-19T04:57:15;11.40;99.90
9564;DHT22;4820;50.870;4.702;2023-03-19T04:59:41;11.40;99.90
9564;DHT22;4820;50.870;4.702;2023-03-19T05:02:07;11.30;99.90
9564;DHT22;4820;50.870;4.702;2023-03-19T05:04:32;11.30;99.90
9564;DHT22;4820;50.870;4.702;2023-03-19T05:06:58;11.20;99.90
9564;DHT22;4820;50.870;4.702;2023-03-19T05:09:24;11.20;99.90
9564;DHT22;4820;50.870;4.702;2023-03-19T05:11:50;11.10;99.90
9564;DHT22;4820;50.870;4.702;2023-03-19T05:14:16;11.10;99.90
9564;DHT22;4820;50.870;4.702;2023-03-19T05:16:42;11.00;99.90
9564;DHT22;4820;50.870;4.702;2023-03-19T05:19:07;11.00;99.90
9564;DHT22;4820;50.870;4.702;2023-03-19T05:21:33;11.00;99.90
9564;DHT22;4820;50.870;4.702;2023-03-19T05:23:59;10.90;99.90
9564;DHT22;4820;50.870;4.702;2023-03-19T05:26:25;10.90;99.90
9564;DHT22;4820;50.870;4.702;2023-03-19T05:28:51;10.90;99.90
9564;DHT22;4820;50.870;4.702;2023-03-19T05:31:17;10.90;99.90
9564;DHT22;4820;50.870;4.702;2023-03-19T05:33:42;10.80;99.90
9564;DHT22;4820;50.870;4.702;2023-03-19T05:36:10;10.80;99.90
9564;DHT22;4820;50.870;4.702;2023-03-19T05:38:37;10.80;99.90
9564;DHT22;4820;50.870;4.702;2023-03-19T05:41:05;10.70;99.90
9564;DHT22;4820;50.870;4.702;2023-03-19T05:43:31;10.70;99.90
9564;DHT22;4820;50.870;4.702;2023-03-19T05:45:58;10.70;99.90
9564;DHT22;4820;50.870;4.702;2023-03-19T05:48:24;10.70;99.90
9564;DHT22;4820;50.870;4.702;2023-03-19T05:50:51;10.60;99.90
9564;DHT22;4820;50.870;4.702;2023-03-19T05:53:18;10.60;99.90
9564;DHT22;4820;50.870;4.702;2023-03-19T05:55:45;10.60;99.90
9564;DHT22;4820;50.870;4.702;2023-03-19T05:58:11;10.60;99.90
9564;DHT22;4820;50.870;4.702;2023-03-19T06:00:36;10.60;99.90
9564;DHT22;4820;50.870;4.702;2023-03-19T06:03:02;10.60;99.90
9564;DHT22;4820;50.870;4.702;2023-03-19T06:05:28;10.50;99.90
9564;DHT22;4820;50.870;4.702;2023-03-19T06:07:54;10.60;99.90
9564;DHT22;4820;50.870;4.702;2023-03-19T06:10:20;10.60;99.90
9564;DHT22;4820;50.870;4.702;2023-03-19T06:12:45;10.60;99.90
9564;DHT22;4820;50.870;4.702;2023-03-19T06:15:12;10.70;99.90
9564;DHT22;4820;50.870;4.702;2023-03-19T06:17:37;10.70;99.90
9564;DHT22;4820;50.870;4.702;2023-03-19T06:20:03;10.80;99.90
9564;DHT22;4820;50.870;4.702;2023-03-19T06:22:29;10.90;99.90
9564;DHT22;4820;50.870;4.702;2023-03-19T06:24:55;10.90;99.90
9564;DHT22;4820;50.870;4.702;2023-03-19T06:27:21;10.90;99.90
9564;DHT22;4820;50.870;4.702;2023-03-19T06:29:46;10.90;99.90
9564;DHT22;4820;50.870;4.702;2023-03-19T06:32:12;10.90;99.90
9564;DHT22;4820;50.870;4.702;2023-03-19T06:34:38;11.00;99.90
9564;DHT22;4820;50.870;4.702;2023-03-19T06:37:04;10.90;99.90
9564;DHT22;4820;50.870;4.702;2023-03-19T06:39:30;11.00;99.90
9564;DHT22;4820;50.870;4.702;2023-03-19T06:41:57;11.00;99.90
9564;DHT22;4820;50.870;4.702;2023-03-19T06:44:22;11.00;99.90
9564;DHT22;4820;50.870;4.702;2023-03-19T06:46:49;11.00;99.90
9564;DHT22;4820;50.870;4.702;2023-03-19T06:49:16;11.00;99.90
9564;DHT22;4820;50.870;4.702;2023-03-19T06:51:42;11.00;99.90
9564;DHT22;4820;50.870;4.702;2023-03-19T06:54:08;10.90;99.90
9564;DHT22;4820;50.870;4.702;2023-03-19T06:56:33;10.90;99.90
9564;DHT22;4820;50.870;4.702;2023-03-19T06:58:59;10.90;99.90
9564;DHT22;4820;50.870;4.702;2023-03-19T07:01:25;10.90;99.90
9564;DHT22;4820;50.870;4.702;2023-03-19T07:03:51;10.90;99.90
9564;DHT22;4820;50.870;4.702;2023-03-19T07:06:17;10.90;99.90
9564;DHT22;4820;50.870;4.702;2023-03-19T07:08:42;10.80;99.90
9564;DHT22;4820;50.870;4.702;2023-03-19T07:11:11;10.90;99.90
9564;DHT22;4820;50.870;4.702;2023-03-19T07:13:37;10.90;99.90
9564;DHT22;4820;50.870;4.702;2023-03-19T07:16:03;10.90;99.90
9564;DHT22;4820;50.870;4.702;2023-03-19T07:18:29;10.90;99.90
9564;DHT22;4820;50.870;4.702;2023-03-19T07:20:55;10.80;99.90
9564;DHT22;4820;50.870;4.702;2023-03-19T07:23:21;10.80;99.90
9564;DHT22;4820;50.870;4.702;2023-03-19T07:25:48;10.80;99.90
9564;DHT22;4820;50.870;4.702;2023-03-19T07:28:14;10.80;99.90
9564;DHT22;4820;50.870;4.702;2023-03-19T07:30:40;10.80;99.90
9564;DHT22;4820;50.870;4.702;2023-03-19T07:33:07;10.80;99.90
9564;DHT22;4820;50.870;4.702;2023-03-19T07:35:34;10.80;99.90
9564;DHT22;4820;50.870;4.702;2023-03-19T07:38:00;10.90;99.90
9564;DHT22;4820;50.870;4.702;2023-03-19T07:40:27;10.80;99.90
9564;DHT22;4820;50.870;4.702;2023-03-19T07:42:52;10.90;99.90
9564;DHT22;4820;50.870;4.702;2023-03-19T07:45:18;10.90;99.90
9564;DHT22;4820;50.870;4.702;2023-03-19T07:47:44;11.00;99.90
9564;DHT22;4820;50.870;4.702;2023-03-19T07:50:10;11.00;99.90
9564;DHT22;4820;50.870;4.702;2023-03-19T07:52:35;11.10;99.90
9564;DHT22;4820;50.870;4.702;2023-03-19T07:55:01;11.10;99.90
9564;DHT22;4820;50.870;4.702;2023-03-19T07:57:27;11.10;99.90
9564;DHT22;4820;50.870;4.702;2023-03-19T07:59:52;11.10;99.90
9564;DHT22;4820;50.870;4.702;2023-03-19T08:02:18;11.20;99.90
9564;DHT22;4820;50.870;4.702;2023-03-19T08:04:45;11.10;99.90
9564;DHT22;4820;50.870;4.702;2023-03-19T08:07:11;11.20;99.90
9564;DHT22;4820;50.870;4.702;2023-03-19T08:09:37;11.20;99.90
9564;DHT22;4820;50.870;4.702;2023-03-19T08:12:04;11.30;99.90
9564;DHT22;4820;50.870;4.702;2023-03-19T08:14:31;11.40;99.90
9564;DHT22;4820;50.870;4.702;2023-03-19T08:16:57;11.40;99.90
9564;DHT22;4820;50.870;4.702;2023-03-19T08:19:26;11.50;99.90
9564;DHT22;4820;50.870;4.702;2023-03-19T08:21:53;11.50;99.90
9564;DHT22;4820;50.870;4.702;2023-03-19T08:24:20;11.50;99.90
9564;DHT22;4820;50.870;4.702;2023-03-19T08:26:45;11.60;99.90
9564;DHT22;4820;50.870;4.702;2023-03-19T08:29:11;11.70;99.90
9564;DHT22;4820;50.870;4.702;2023-03-19T08:31:37;11.80;99.90
9564;DHT22;4820;50.870;4.702;2023-03-19T08:34:03;11.80;99.90
9564;DHT22;4820;50.870;4.702;2023-03-19T08:36:30;11.90;99.90
9564;DHT22;4820;50.870;4.702;2023-03-19T08:38:56;12.00;99.90
9564;DHT22;4820;50.870;4.702;2023-03-19T08:41:24;12.00;99.90
9564;DHT22;4820;50.870;4.702;2023-03-19T08:43:50;12.10;99.90
9564;DHT22;4820;50.870;4.702;2023-03-19T08:46:16;12.10;99.90
9564;DHT22;4820;50.870;4.702;2023-03-19T08:48:42;12.10;99.90
9564;DHT22;4820;50.870;4.702;2023-03-19T08:51:09;12.10;99.90
9564;DHT22;4820;50.870;4.702;2023-03-19T08:53:36;12.10;99.90
9564;DHT22;4820;50.870;4.702;2023-03-19T08:56:04;12.20;99.90
9564;DHT22;4820;50.870;4.702;2023-03-19T08:58:31;12.20;99.90
9564;DHT22;4820;50.870;4.702;2023-03-19T09:01:14;12.30;99.90
9564;DHT22;4820;50.870;4.702;2023-03-19T09:03:43;12.40;99.90
9564;DHT22;4820;50.870;4.702;2023-03-19T09:06:11;12.50;99.90
9564;DHT22;4820;50.870;4.702;2023-03-19T09:08:37;12.60;99.90
9564;DHT22;4820;50.870;4.702;2023-03-19T09:11:03;12.70;99.90
9564;DHT22;4820;50.870;4.702;2023-03-19T09:13:30;12.80;99.90
9564;DHT22;4820;50.870;4.702;2023-03-19T09:15:57;12.80;99.90
9564;DHT22;4820;50.870;4.702;2023-03-19T09:18:23;12.90;99.90
9564;DHT22;4820;50.870;4.702;2023-03-19T09:20:50;12.90;99.90
9564;DHT22;4820;50.870;4.702;2023-03-19T09:23:16;13.10;99.90
9564;DHT22;4820;50.870;4.702;2023-03-19T09:25:42;13.20;99.90
9564;DHT22;4820;50.870;4.702;2023-03-19T09:28:08;13.30;99.90
9564;DHT22;4820;50.870;4.702;2023-03-19T09:30:34;13.40;99.90
9564;DHT22;4820;50.870;4.702;2023-03-19T09:33:01;13.30;99.90
9564;DHT22;4820;50.870;4.702;2023-03-19T09:35:28;13.30;99.90
9564;DHT22;4820;50.870;4.702;2023-03-19T09:37:57;13.40;99.90
9564;DHT22;4820;50.870;4.702;2023-03-19T09:40:37;13.40;99.90
9564;DHT22;4820;50.870;4.702;2023-03-19T09:45:54;13.70;99.90
9564;DHT22;4820;50.870;4.702;2023-03-19T09:48:34;14.00;99.90
9564;DHT22;4820;50.870;4.702;2023-03-19T09:51:06;14.20;99.90
9564;DHT22;4820;50.870;4.702;2023-03-19T09:53:44;14.30;99.90
9564;DHT22;4820;50.870;4.702;2023-03-19T09:56:14;14.50;99.90
9564;DHT22;4820;50.870;4.702;2023-03-19T09:58:44;14.70;99.90
9564;DHT22;4820;50.870;4.702;2023-03-19T10:01:32;15.10;99.90
9564;DHT22;4820;50.870;4.702;2023-03-19T10:04:58;15.30;99.90
9564;DHT22;4820;50.870;4.702;2023-03-19T10:09:56;15.20;99.90
9564;DHT22;4820;50.870;4.702;2023-03-19T10:15:19;15.50;99.90
9564;DHT22;4820;50.870;4.702;2023-03-19T10:20:37;15.70;99.90
9564;DHT22;4820;50.870;4.702;2023-03-19T10:23:41;15.80;99.90
9564;DHT22;4820;50.870;4.702;2023-03-19T10:26:14;15.60;99.90
9564;DHT22;4820;50.870;4.702;2023-03-19T10:28:42;15.40;99.90
9564;DHT22;4820;50.870;4.702;2023-03-19T10:31:25;15.20;99.90
9564;DHT22;4820;50.870;4.702;2023-03-19T10:36:30;14.80;99.90
9564;DHT22;4820;50.870;4.702;2023-03-19T10:38:58;14.60;99.90
9564;DHT22;4820;50.870;4.702;2023-03-19T10:41:56;14.50;99.90
9564;DHT22;4820;50.870;4.702;2023-03-19T10:44:34;14.30;99.90
9564;DHT22;4820;50.870;4.702;2023-03-19T10:47:13;14.30;99.90
9564;DHT22;4820;50.870;4.702;2023-03-19T10:49:40;14.30;99.90
9564;DHT22;4820;50.870;4.702;2023-03-19T10:52:24;14.30;99.90
9564;DHT22;4820;50.870;4.702;2023-03-19T10:55:01;14.30;99.90
9564;DHT22;4820;50.870;4.702;2023-03-19T10:57:28;14.30;99.90
9564;DHT22;4820;50.870;4.702;2023-03-19T10:59:54;14.20;99.90
9564;DHT22;4820;50.870;4.702;2023-03-19T11:02:23;14.10;99.90
9564;DHT22;4820;50.870;4.702;2023-03-19T11:05:21;14.10;99.90
9564;DHT22;4820;50.870;4.702;2023-03-19T11:07:54;14.30;99.90
9564;DHT22;4820;50.870;4.702;2023-03-19T11:10:24;14.50;99.90
9564;DHT22;4820;50.870;4.702;2023-03-19T11:13:03;14.90;99.90
9564;DHT22;4820;50.870;4.702;2023-03-19T11:15:36;15.20;99.90
9564;DHT22;4820;50.870;4.702;2023-03-19T11:18:23;15.30;99.90
9564;DHT22;4820;50.870;4.702;2023-03-19T11:21:00;15.30;99.90
9564;DHT22;4820;50.870;4.702;2023-03-19T11:23:31;15.50;99.90
9564;DHT22;4820;50.870;4.702;2023-03-19T11:26:02;15.60;99.90
9564;DHT22;4820;50.870;4.702;2023-03-19T11:28:28;15.60;99.90
9564;DHT22;4820;50.870;4.702;2023-03-19T11:31:12;15.60;99.90
9564;DHT22;4820;50.870;4.702;2023-03-19T11:37:07;15.30;99.90
9564;DHT22;4820;50.870;4.702;2023-03-19T11:39:54;15.20;99.90
9564;DHT22;4820;50.870;4.702;2023-03-19T11:50:32;14.90;99.90
9564;DHT22;4820;50.870;4.702;2023-03-19T12:04:27;15.00;99.90
9564;DHT22;4820;50.870;4.702;2023-03-19T12:09:58;14.90;99.90
9564;DHT22;4820;50.870;4.702;2023-03-19T12:12:36;14.80;99.90
9564;DHT22;4820;50.870;4.702;2023-03-19T12:15:23;14.70;99.90
9564;DHT22;4820;50.870;4.702;2023-03-19T12:17:55;14.90;99.90
9564;DHT22;4820;50.870;4.702;2023-03-19T12:23:11;15.10;99.90
9564;DHT22;4820;50.870;4.702;2023-03-19T12:26:03;15.10;99.90
9564;DHT22;4820;50.870;4.702;2023-03-19T12:28:38;15.20;99.90
9564;DHT22;4820;50.870;4.702;2023-03-19T12:31:27;15.30;99.90
9564;DHT22;4820;50.870;4.702;2023-03-19T12:34:25;15.40;99.90
9564;DHT22;4820;50.870;4.702;2023-03-19T12:37:25;15.50;99.90
9564;DHT22;4820;50.870;4.702;2023-03-19T12:42:38;15.50;99.90
9564;DHT22;4820;50.870;4.702;2023-03-19T12:45:23;15.40;99.90
9564;DHT22;4820;50.870;4.702;2023-03-19T12:47:55;15.30;99.90
9564;DHT22;4820;50.870;4.702;2023-03-19T12:50:23;15.20;99.90
9564;DHT22;4820;50.870;4.702;2023-03-19T12:52:52;15.10;99.90
9564;DHT22;4820;50.870;4.702;2023-03-19T12:55:21;15.10;99.90
9564;DHT22;4820;50.870;4.702;2023-03-19T12:57:53;15.00;99.90
9564;DHT22;4820;50.870;4.702;2023-03-19T13:00:27;15.00;99.90
9564;DHT22;4820;50.870;4.702;2023-03-19T13:06:02;15.10;99.90
9564;DHT22;4820;50.870;4.702;2023-03-19T13:08:36;15.10;99.90
9564;DHT22;4820;50.870;4.702;2023-03-19T13:11:12;15.10;99.90
9564;DHT22;4820;50.870;4.702;2023-03-19T13:19:42;15.40;99.90
9564;DHT22;4820;50.870;4.702;2023-03-19T13:22:12;15.30;99.90
9564;DHT22;4820;50.870;4.702;2023-03-19T13:24:41;15.40;99.90
9564;DHT22;4820;50.870;4.702;2023-03-19T13:27:22;15.50;99.90
9564;DHT22;4820;50.870;4.702;2023-03-19T13:32:47;15.40;99.90
9564;DHT22;4820;50.870;4.702;2023-03-19T13:38:06;15.10;99.90
9564;DHT22;4820;50.870;4.702;2023-03-19T13:40:50;14.90;99.90
9564;DHT22;4820;50.870;4.702;2023-03-19T13:46:31;14.80;99.90
9564;DHT22;4820;50.870;4.702;2023-03-19T13:49:30;14.80;99.90
9564;DHT22;4820;50.870;4.702;2023-03-19T13:52:01;14.80;99.90
9564;DHT22;4820;50.870;4.702;2023-03-19T13:54:39;15.00;99.90
9564;DHT22;4820;50.870;4.702;2023-03-19T13:57:15;15.20;99.90
9564;DHT22;4820;50.870;4.702;2023-03-19T13:59:45;15.30;99.90
9564;DHT22;4820;50.870;4.702;2023-03-19T14:04:58;15.40;99.90
9564;DHT22;4820;50.870;4.702;2023-03-19T14:07:27;15.40;99.90
9564;DHT22;4820;50.870;4.702;2023-03-19T14:12:31;15.20;99.90
9564;DHT22;4820;50.870;4.702;2023-03-19T14:17:59;14.90;99.90
9564;DHT22;4820;50.870;4.702;2023-03-19T14:20:30;14.70;99.90
9564;DHT22;4820;50.870;4.702;2023-03-19T14:23:10;14.60;99.90
9564;DHT22;4820;50.870;4.702;2023-03-19T14:26:04;14.60;99.90
9564;DHT22;4820;50.870;4.702;2023-03-19T14:28:58;14.50;99.90
9564;DHT22;4820;50.870;4.702;2023-03-19T14:31:40;14.60;99.90
9564;DHT22;4820;50.870;4.702;2023-03-19T14:36:40;14.50;99.90
9564;DHT22;4820;50.870;4.702;2023-03-19T14:39:24;14.60;99.90
9564;DHT22;4820;50.870;4.702;2023-03-19T14:53:02;14.70;99.90
9564;DHT22;4820;50.870;4.702;2023-03-19T14:55:34;14.70;99.90
9564;DHT22;4820;50.870;4.702;2023-03-19T14:58:01;14.70;99.90
9564;DHT22;4820;50.870;4.702;2023-03-19T15:00:27;14.70;99.90
9564;DHT22;4820;50.870;4.702;2023-03-19T15:02:53;14.70;99.90
9564;DHT22;4820;50.870;4.702;2023-03-19T15:05:30;14.80;99.90
9564;DHT22;4820;50.870;4.702;2023-03-19T15:08:08;14.80;99.90
9564;DHT22;4820;50.870;4.702;2023-03-19T15:10:47;14.80;99.90
9564;DHT22;4820;50.870;4.702;2023-03-19T15:19:15;14.70;99.90
9564;DHT22;4820;50.870;4.702;2023-03-19T15:21:43;14.60;99.90
9564;DHT22;4820;50.870;4.702;2023-03-19T15:24:16;14.60;99.90
9564;DHT22;4820;50.870;4.702;2023-03-19T15:26:43;14.60;99.90
9564;DHT22;4820;50.870;4.702;2023-03-19T15:29:10;14.50;99.90
9564;DHT22;4820;50.870;4.702;2023-03-19T15:31:45;14.40;99.90
9564;DHT22;4820;50.870;4.702;2023-03-19T15:34:24;14.40;99.90
9564;DHT22;4820;50.870;4.702;2023-03-19T15:37:11;14.30;99.90
9564;DHT22;4820;50.870;4.702;2023-03-19T15:39:49;14.30;99.90
9564;DHT22;4820;50.870;4.702;2023-03-19T15:42:16;14.30;99.90
9564;DHT22;4820;50.870;4.702;2023-03-19T15:44:49;14.20;99.90
9564;DHT22;4820;50.870;4.702;2023-03-19T15:47:20;14.10;99.90
9564;DHT22;4820;50.870;4.702;2023-03-19T15:50:15;14.00;99.90
9564;DHT22;4820;50.870;4.702;2023-03-19T15:52:45;13.90;99.90
9564;DHT22;4820;50.870;4.702;2023-03-19T15:55:15;13.80;99.90
9564;DHT22;4820;50.870;4.702;2023-03-19T15:57:42;13.80;99.90
9564;DHT22;4820;50.870;4.702;2023-03-19T16:00:09;13.60;99.90
9564;DHT22;4820;50.870;4.702;2023-03-19T16:02:39;13.60;99.90
9564;DHT22;4820;50.870;4.702;2023-03-19T16:05:27;13.60;99.90
9564;DHT22;4820;50.870;4.702;2023-03-19T16:08:17;13.50;99.90
9564;DHT22;4820;50.870;4.702;2023-03-19T16:10:44;13.40;99.90
9564;DHT22;4820;50.870;4.702;2023-03-19T16:13:38;13.30;99.90
9564;DHT22;4820;50.870;4.702;2023-03-19T16:16:14;13.20;99.90
9564;DHT22;4820;50.870;4.702;2023-03-19T16:24:02;12.80;99.90
9564;DHT22;4820;50.870;4.702;2023-03-19T16:29:04;12.60;99.90
9564;DHT22;4820;50.870;4.702;2023-03-19T16:31:39;12.50;99.90
9564;DHT22;4820;50.870;4.702;2023-03-19T16:36:48;12.30;99.90
9564;DHT22;4820;50.870;4.702;2023-03-19T16:39:31;12.30;99.90
9564;DHT22;4820;50.870;4.702;2023-03-19T16:42:13;12.30;99.90
9564;DHT22;4820;50.870;4.702;2023-03-19T16:44:41;12.40;99.90
9564;DHT22;4820;50.870;4.702;2023-03-19T16:47:17;12.40;99.90
9564;DHT22;4820;50.870;4.702;2023-03-19T16:49:47;12.40;99.90
9564;DHT22;4820;50.870;4.702;2023-03-19T16:52:17;12.30;99.90
9564;DHT22;4820;50.870;4.702;2023-03-19T16:54:44;12.30;99.90
9564;DHT22;4820;50.870;4.702;2023-03-19T16:57:15;12.30;99.90
9564;DHT22;4820;50.870;4.702;2023-03-19T16:59:42;12.30;99.90
9564;DHT22;4820;50.870;4.702;2023-03-19T17:02:13;12.20;99.90
9564;DHT22;4820;50.870;4.702;2023-03-19T17:04:39;12.20;99.90
9564;DHT22;4820;50.870;4.702;2023-03-19T17:07:06;12.10;99.90
9564;DHT22;4820;50.870;4.702;2023-03-19T17:09:33;12.10;99.90
9564;DHT22;4820;50.870;4.702;2023-03-19T17:12:00;12.10;99.90
9564;DHT22;4820;50.870;4.702;2023-03-19T17:14:27;12.10;99.90
9564;DHT22;4820;50.870;4.702;2023-03-19T17:16:53;12.10;99.90
9564;DHT22;4820;50.870;4.702;2023-03-19T17:19:23;12.10;99.90
9564;DHT22;4820;50.870;4.702;2023-03-19T17:21:51;12.10;99.90
9564;DHT22;4820;50.870;4.702;2023-03-19T17:24:25;12.10;99.90
9564;DHT22;4820;50.870;4.702;2023-03-19T17:26:52;12.00;99.90
9564;DHT22;4820;50.870;4.702;2023-03-19T17:29:19;12.00;99.90
9564;DHT22;4820;50.870;4.702;2023-03-19T17:31:46;11.90;99.90
9564;DHT22;4820;50.870;4.702;2023-03-19T17:34:32;11.80;99.90
9564;DHT22;4820;50.870;4.702;2023-03-19T17:37:02;11.80;99.90
9564;DHT22;4820;50.870;4.702;2023-03-19T17:39:28;11.70;99.90
9564;DHT22;4820;50.870;4.702;2023-03-19T17:41:57;11.70;99.90
9564;DHT22;4820;50.870;4.702;2023-03-19T17:44:24;11.70;99.90
9564;DHT22;4820;50.870;4.702;2023-03-19T17:46:53;11.60;99.90
9564;DHT22;4820;50.870;4.702;2023-03-19T17:49:25;11.60;99.90
9564;DHT22;4820;50.870;4.702;2023-03-19T17:51:54;11.50;99.90
9564;DHT22;4820;50.870;4.702;2023-03-19T17:54:20;11.40;99.90
9564;DHT22;4820;50.870;4.702;2023-03-19T17:56:47;11.40;99.90
9564;DHT22;4820;50.870;4.702;2023-03-19T17:59:12;11.30;99.90
9564;DHT22;4820;50.870;4.702;2023-03-19T18:01:40;11.30;99.90
9564;DHT22;4820;50.870;4.702;2023-03-19T18:04:12;11.20;99.90
9564;DHT22;4820;50.870;4.702;2023-03-19T18:06:42;11.20;99.90
9564;DHT22;4820;50.870;4.702;2023-03-19T18:09:23;11.10;99.90